createdAt,value
2018-04-29T00:02:56.411Z,49.30
2018-04-29T00:05:58.907Z,48.86
2018-04-29T00:09:01.435Z,49.24
2018-04-29T00:12:03.970Z,49.43
2018-04-29T00:15:06.532Z,49.18
2018-04-29T00:18:09.042Z,49.89
2018-04-29T00:21:11.544Z,49.47
2018-04-29T00:24:14.067Z,52.15
2018-04-29T00:27:16.569Z,52.20
2018-04-29T00:30:19.078Z,51.18
2018-04-29T00:33:21.643Z,51.63
2018-04-29T00:36:24.174Z,50.06
2018-04-29T00:39:26.678Z,50.06
2018-04-29T00:42:29.233Z,49.26
2018-04-29T00:45:31.735Z,49.27
2018-04-29T00:48:34.256Z,49.42
2018-04-29T00:51:48.479Z,50.25
2018-04-29T00:54:51.000Z,50.27
2018-04-29T00:57:53.545Z,50.89
2018-04-29T01:00:56.052Z,50.46
2018-04-29T01:03:58.595Z,50.72
2018-04-29T01:07:01.137Z,50.75
2018-04-29T01:10:03.646Z,51.05
2018-04-29T01:13:06.195Z,51.32
2018-04-29T01:16:08.720Z,51.07
2018-04-29T01:19:11.251Z,52.61
2018-04-29T01:22:13.736Z,52.50
2018-04-29T01:25:16.312Z,53.07
2018-04-29T01:28:18.827Z,52.99
2018-04-29T01:31:21.328Z,53.34
2018-04-29T01:34:23.900Z,53.77
2018-04-29T01:37:26.391Z,53.79
2018-04-29T01:40:28.920Z,54.04
2018-04-29T01:43:31.428Z,54.33
2018-04-29T01:46:33.898Z,53.81
2018-04-29T01:49:36.441Z,54.45
2018-04-29T01:52:38.943Z,55.29
2018-04-29T01:55:41.483Z,54.70
2018-04-29T01:58:43.990Z,54.67
2018-04-29T02:01:46.496Z,53.21
2018-04-29T02:04:49.055Z,53.37
2018-04-29T02:07:51.537Z,54.15
2018-04-29T02:10:54.041Z,54.04
2018-04-29T02:13:56.571Z,54.66
2018-04-29T02:16:59.064Z,55.05
2018-04-29T02:20:01.549Z,54.96
2018-04-29T02:23:04.079Z,55.45
2018-04-29T02:26:06.622Z,55.05
2018-04-29T02:29:09.103Z,54.06
2018-04-29T02:32:11.596Z,54.48
2018-04-29T02:35:14.145Z,55.23
2018-04-29T02:38:16.664Z,55.00
2018-04-29T02:41:19.167Z,55.35
2018-04-29T02:44:21.683Z,55.22
2018-04-29T02:47:24.185Z,54.67
2018-04-29T02:50:26.676Z,54.13
2018-04-29T02:53:29.174Z,53.71
2018-04-29T02:56:31.673Z,53.89
2018-04-29T02:59:34.402Z,53.79
2018-04-29T03:02:36.918Z,53.83
2018-04-29T03:05:39.502Z,53.93
2018-04-29T03:08:42.079Z,53.41
2018-04-29T03:11:44.582Z,53.82
2018-04-29T03:14:47.072Z,53.79
2018-04-29T03:17:49.556Z,54.21
2018-04-29T03:20:52.078Z,55.00
2018-04-29T03:23:54.687Z,54.82
2018-04-29T03:26:57.184Z,55.21
2018-04-29T03:29:59.683Z,54.75
2018-04-29T03:33:02.180Z,55.01
2018-04-29T03:36:04.728Z,55.13
2018-04-29T03:39:07.271Z,55.55
2018-04-29T03:42:09.789Z,55.99
2018-04-29T03:45:12.293Z,56.07
2018-04-29T03:48:14.835Z,56.07
2018-04-29T03:51:17.327Z,55.59
2018-04-29T03:54:19.823Z,55.92
2018-04-29T03:57:34.015Z,56.62
2018-04-29T04:00:51.171Z,56.57
2018-04-29T04:03:58.310Z,56.96
2018-04-29T04:07:00.844Z,56.17
2018-04-29T04:10:03.362Z,56.59
2018-04-29T04:13:05.852Z,55.66
2018-04-29T04:16:08.336Z,55.46
2018-04-29T04:19:10.822Z,56.73
2018-04-29T04:22:13.317Z,57.11
2018-04-29T04:25:15.795Z,58.15
2018-04-29T04:28:18.331Z,56.86
2018-04-29T04:31:21.069Z,57.80
2018-04-29T04:34:23.583Z,57.83
2018-04-29T04:37:26.183Z,58.43
2018-04-29T04:40:28.669Z,57.69
2018-04-29T04:43:31.181Z,57.76
2018-04-29T04:46:33.705Z,57.58
2018-04-29T04:49:36.212Z,57.65
2018-04-29T04:52:38.715Z,58.00
2018-04-29T04:55:41.236Z,58.09
2018-04-29T04:58:43.804Z,57.77
2018-04-29T05:01:46.303Z,57.11
2018-04-29T05:04:48.836Z,57.35
2018-04-29T05:07:51.359Z,57.00
2018-04-29T05:10:53.905Z,56.12
2018-04-29T05:13:56.443Z,56.98
2018-04-29T05:17:00.160Z,56.82
2018-04-29T05:20:02.664Z,56.93
2018-04-29T05:23:05.181Z,56.81
2018-04-29T05:26:07.746Z,56.52
2018-04-29T05:29:10.222Z,56.03
2018-04-29T05:32:12.718Z,56.27
2018-04-29T05:35:15.218Z,56.80
2018-04-29T05:38:17.739Z,56.66
2018-04-29T05:41:20.230Z,56.52
2018-04-29T05:44:22.712Z,56.64
2018-04-29T05:47:25.208Z,56.38
2018-04-29T05:50:27.734Z,56.02
2018-04-29T05:53:30.309Z,55.97
2018-04-29T05:56:32.791Z,55.62
2018-04-29T05:59:35.293Z,55.66
2018-04-29T06:02:37.789Z,55.69
2018-04-29T06:05:40.279Z,55.35
2018-04-29T06:08:42.815Z,55.39
2018-04-29T06:11:46.124Z,55.16
2018-04-29T06:14:48.647Z,54.82
2018-04-29T06:17:51.169Z,54.67
2018-04-29T06:20:53.660Z,54.72
2018-04-29T06:23:56.211Z,54.37
2018-04-29T06:26:58.798Z,54.01
2018-04-29T06:30:01.319Z,53.78
2018-04-29T06:33:03.863Z,53.01
2018-04-29T06:36:06.352Z,52.63
2018-04-29T06:39:08.913Z,51.80
2018-04-29T06:42:11.419Z,51.50
2018-04-29T06:45:13.944Z,51.52
2018-04-29T06:48:16.469Z,51.10
2018-04-29T06:51:20.369Z,52.29
2018-04-29T06:54:22.958Z,52.87
2018-04-29T06:57:25.524Z,51.58
2018-04-29T07:00:28.106Z,51.20
2018-04-29T07:03:30.701Z,50.95
2018-04-29T07:06:33.286Z,50.58
2018-04-29T07:09:35.791Z,50.05
2018-04-29T07:12:38.324Z,50.41
2018-04-29T07:15:40.902Z,49.87
2018-04-29T07:18:44.418Z,50.68
2018-04-29T07:21:47.135Z,50.16
2018-04-29T07:24:49.728Z,50.76
2018-04-29T07:27:52.252Z,50.50
2018-04-29T07:30:54.781Z,51.04
2018-04-29T07:33:57.381Z,50.52
2018-04-29T07:36:59.922Z,49.65
2018-04-29T07:40:02.522Z,50.31
2018-04-29T07:43:05.137Z,49.08
2018-04-29T07:46:07.647Z,48.39
2018-04-29T07:49:10.193Z,48.67
2018-04-29T07:52:14.414Z,47.35
2018-04-29T07:55:17.567Z,46.87
2018-04-29T07:58:20.140Z,47.21
2018-04-29T08:01:22.742Z,45.93
2018-04-29T08:04:25.331Z,45.79
2018-04-29T08:07:27.911Z,44.86
2018-04-29T08:10:30.748Z,44.65
2018-04-29T08:13:33.274Z,43.98
2018-04-29T08:16:35.788Z,43.39
2018-04-29T08:19:38.373Z,43.75
2018-04-29T08:22:40.980Z,44.65
2018-04-29T08:25:43.620Z,43.38
2018-04-29T08:28:46.203Z,43.74
2018-04-29T08:31:48.825Z,43.39
2018-04-29T08:34:51.431Z,42.79
2018-04-29T08:37:54.015Z,42.72
2018-04-29T08:40:56.626Z,42.71
2018-04-29T08:43:59.395Z,42.11
2018-04-29T08:47:02.804Z,42.26
2018-04-29T08:50:05.595Z,42.89
2018-04-29T08:53:08.177Z,42.75
2018-04-29T08:56:10.758Z,42.46
2018-04-29T08:59:13.439Z,44.11
2018-04-29T09:02:16.288Z,43.28
2018-04-29T09:05:18.928Z,43.60
2018-04-29T09:08:21.609Z,42.81
2018-04-29T09:11:24.225Z,41.00
2018-04-29T09:14:27.378Z,40.52
2018-04-29T09:17:30.680Z,38.69
2018-04-29T09:20:33.331Z,38.25
2018-04-29T09:23:35.916Z,38.02
2018-04-29T09:26:38.588Z,37.68
2018-04-29T09:29:41.198Z,36.20
2018-04-29T09:32:43.773Z,35.27
2018-04-29T09:35:46.768Z,35.52
2018-04-29T09:38:49.305Z,34.59
2018-04-29T09:41:51.916Z,34.14
2018-04-29T09:44:54.541Z,33.82
2018-04-29T09:47:57.862Z,33.60
2018-04-29T09:51:00.722Z,33.45
2018-04-29T09:54:03.376Z,33.63
2018-04-29T09:57:07.697Z,32.00
2018-04-29T10:00:10.271Z,32.00
2018-04-29T10:03:12.917Z,32.03
2018-04-29T10:06:15.549Z,31.61
2018-04-29T10:09:18.146Z,31.40
2018-04-29T10:12:21.371Z,31.79
2018-04-29T10:15:24.781Z,31.25
2018-04-29T10:18:27.326Z,30.51
2018-04-29T10:21:29.900Z,30.92
2018-04-29T10:24:32.607Z,31.19
2018-04-29T10:27:35.785Z,30.25
2018-04-29T10:30:38.399Z,30.97
2018-04-29T10:33:40.980Z,30.68
2018-04-29T10:36:43.531Z,30.39
2018-04-29T10:39:46.067Z,30.95
2018-04-29T10:42:49.677Z,30.40
2018-04-29T10:45:52.247Z,30.50
2018-04-29T10:48:54.804Z,30.46
2018-04-29T10:51:57.380Z,30.11
2018-04-29T10:55:00.106Z,30.85
2018-04-29T10:58:02.678Z,30.19
2018-04-29T11:01:05.383Z,29.77
2018-04-29T11:04:07.929Z,29.76
2018-04-29T11:07:11.324Z,29.21
2018-04-29T11:10:13.932Z,29.11
2018-04-29T11:13:16.594Z,29.34
2018-04-29T11:16:19.271Z,29.72
2018-04-29T11:19:21.886Z,29.54
2018-04-29T11:22:24.478Z,29.33
2018-04-29T11:25:27.079Z,29.58
2018-04-29T11:28:29.779Z,29.04
2018-04-29T11:31:32.389Z,29.79
2018-04-29T11:34:34.930Z,30.06
2018-04-29T11:37:37.497Z,29.35
2018-04-29T11:40:40.175Z,29.23
2018-04-29T11:43:43.514Z,29.60
2018-04-29T11:46:46.052Z,28.80
2018-04-29T11:49:48.598Z,29.36
2018-04-29T11:52:51.134Z,29.21
2018-04-29T11:55:53.907Z,29.37
2018-04-29T11:58:56.487Z,29.02
2018-04-29T12:01:59.251Z,29.17
2018-04-29T12:05:01.765Z,28.49
2018-04-29T12:08:04.623Z,29.23
2018-04-29T12:11:07.601Z,28.86
2018-04-29T12:14:10.187Z,29.07
2018-04-29T12:17:12.724Z,27.96
2018-04-29T12:20:15.295Z,29.47
2018-04-29T12:23:17.862Z,29.17
2018-04-29T12:26:20.467Z,28.89
2018-04-29T12:29:23.094Z,28.52
2018-04-29T12:32:25.756Z,28.34
2018-04-29T12:35:28.367Z,28.71
2018-04-29T12:38:31.477Z,29.11
2018-04-29T12:41:34.991Z,29.51
2018-04-29T12:44:37.560Z,29.10
2018-04-29T12:47:40.121Z,28.35
2018-04-29T12:50:42.717Z,28.50
2018-04-29T12:53:45.300Z,28.32
2018-04-29T12:56:47.885Z,29.74
2018-04-29T12:59:50.493Z,29.03
2018-04-29T13:02:53.093Z,29.28
2018-04-29T13:05:55.777Z,28.88
2018-04-29T13:08:58.423Z,28.48
2018-04-29T13:12:01.723Z,29.16
2018-04-29T13:15:04.306Z,29.77
2018-04-29T13:18:06.929Z,29.62
2018-04-29T13:21:09.467Z,29.72
2018-04-29T13:24:12.012Z,29.82
2018-04-29T13:27:14.553Z,29.69
2018-04-29T13:30:17.118Z,30.07
2018-04-29T13:33:19.816Z,29.31
2018-04-29T13:36:22.335Z,30.04
2018-04-29T13:39:24.899Z,29.29
2018-04-29T13:42:27.424Z,29.58
2018-04-29T13:45:30.239Z,29.45
2018-04-29T13:48:32.813Z,31.17
2018-04-29T13:51:35.372Z,29.26
2018-04-29T13:54:38.048Z,29.91
2018-04-29T13:57:40.612Z,30.02
2018-04-29T14:00:43.115Z,30.16
2018-04-29T14:03:45.626Z,29.88
2018-04-29T14:06:48.173Z,29.96
2018-04-29T14:09:50.776Z,29.90
2018-04-29T14:12:53.332Z,29.50
2018-04-29T14:15:55.840Z,29.30
2018-04-29T14:18:58.418Z,30.43
2018-04-29T14:22:00.976Z,30.61
2018-04-29T14:25:03.525Z,30.85
2018-04-29T14:28:06.766Z,29.95
2018-04-29T14:31:09.403Z,29.95
2018-04-29T14:34:11.890Z,30.58
2018-04-29T14:37:14.412Z,30.15
2018-04-29T14:40:17.127Z,30.19
2018-04-29T14:43:19.771Z,30.93
2018-04-29T14:46:22.405Z,30.62
2018-04-29T14:49:25.015Z,30.63
2018-04-29T14:52:27.591Z,29.85
2018-04-29T14:55:30.186Z,30.54
2018-04-29T14:58:32.825Z,30.86
2018-04-29T15:01:35.472Z,31.02
2018-04-29T15:04:38.046Z,30.53
2018-04-29T15:07:40.678Z,31.06
2018-04-29T15:10:43.197Z,30.82
2018-04-29T15:13:45.774Z,31.87
2018-04-29T15:16:48.337Z,31.23
2018-04-29T15:19:50.874Z,31.27
2018-04-29T15:22:53.403Z,31.11
2018-04-29T15:25:55.972Z,31.31
2018-04-29T15:28:58.636Z,31.65
2018-04-29T15:32:01.185Z,32.18
2018-04-29T15:35:03.939Z,31.58
2018-04-29T15:38:06.516Z,31.14
2018-04-29T15:41:09.095Z,31.90
2018-04-29T15:44:11.632Z,32.24
2018-04-29T15:47:14.797Z,32.69
2018-04-29T15:50:17.385Z,32.64
2018-04-29T15:53:20.005Z,32.83
2018-04-29T15:56:22.591Z,32.95
2018-04-29T15:59:25.242Z,32.68
2018-04-29T16:02:27.782Z,32.88
2018-04-29T16:05:30.354Z,33.19
2018-04-29T16:08:32.893Z,32.91
2018-04-29T16:11:35.463Z,33.55
2018-04-29T16:14:38.035Z,33.69
2018-04-29T16:17:40.679Z,33.76
2018-04-29T16:20:43.376Z,33.92
2018-04-29T16:23:46.033Z,34.42
2018-04-29T16:26:48.634Z,34.29
2018-04-29T16:29:51.247Z,34.50
2018-04-29T16:32:53.970Z,34.43
2018-04-29T16:35:56.563Z,34.79
2018-04-29T16:39:00.247Z,34.67
2018-04-29T16:42:02.873Z,34.60
2018-04-29T16:45:05.494Z,34.61
2018-04-29T16:48:08.145Z,35.21
2018-04-29T16:51:10.715Z,35.65
2018-04-29T16:54:13.343Z,35.22
2018-04-29T16:57:15.901Z,35.50
2018-04-29T17:00:18.453Z,35.96
2018-04-29T17:03:21.092Z,36.06
2018-04-29T17:06:23.675Z,36.20
2018-04-29T17:09:26.359Z,36.09
2018-04-29T17:12:28.903Z,36.49
2018-04-29T17:15:31.551Z,37.24
2018-04-29T17:18:34.258Z,36.91
2018-04-29T17:21:36.959Z,37.29
2018-04-29T17:24:39.539Z,37.21
2018-04-29T17:27:42.116Z,37.52
2018-04-29T17:30:44.742Z,37.87
2018-04-29T17:33:47.360Z,38.14
2018-04-29T17:36:50.046Z,38.07
2018-04-29T17:39:52.821Z,38.37
2018-04-29T17:42:55.528Z,38.37
2018-04-29T17:45:58.131Z,39.00
2018-04-29T17:49:00.782Z,38.66
2018-04-29T17:52:03.386Z,38.79
2018-04-29T17:55:05.950Z,39.53
2018-04-29T17:58:08.638Z,39.69
2018-04-29T18:01:11.392Z,40.06
2018-04-29T18:04:14.088Z,40.87
2018-04-29T18:07:16.844Z,41.37
2018-04-29T18:10:19.418Z,41.96
2018-04-29T18:13:22.087Z,42.13
2018-04-29T18:16:24.777Z,42.19
2018-04-29T18:19:27.366Z,42.41
2018-04-29T18:22:29.998Z,42.78
2018-04-29T18:25:32.640Z,43.12
2018-04-29T18:28:35.322Z,43.14
2018-04-29T18:31:37.977Z,43.53
2018-04-29T18:34:40.632Z,43.41
2018-04-29T18:37:43.163Z,43.27
2018-04-29T18:40:46.813Z,43.34
2018-04-29T18:43:49.395Z,43.57
2018-04-29T18:46:51.976Z,43.43
2018-04-29T18:49:54.612Z,43.66
2018-04-29T18:52:57.397Z,43.95
2018-04-29T18:56:00.113Z,43.39
2018-04-29T18:59:02.735Z,43.62
2018-04-29T19:02:05.414Z,43.36
2018-04-29T19:05:08.129Z,43.39
2018-04-29T19:08:11.212Z,43.10
2018-04-29T19:11:15.028Z,43.54
2018-04-29T19:14:17.797Z,43.21
2018-04-29T19:17:20.473Z,43.01
2018-04-29T19:20:23.133Z,43.08
2018-04-29T19:23:25.815Z,43.86
2018-04-29T19:26:28.573Z,43.48
2018-04-29T19:29:31.685Z,43.58
2018-04-29T19:32:34.895Z,44.11
2018-04-29T19:35:37.566Z,44.39
2018-04-29T19:38:40.335Z,44.12
2018-04-29T19:41:43.142Z,44.21
2018-04-29T19:44:46.038Z,44.13
2018-04-29T19:47:48.689Z,44.58
2018-04-29T19:50:51.412Z,44.15
2018-04-29T19:53:53.993Z,44.70
2018-04-29T19:56:56.614Z,44.85
2018-04-29T19:59:59.209Z,45.12
2018-04-29T20:03:01.801Z,44.94
2018-04-29T20:06:04.426Z,44.94
2018-04-29T20:09:07.366Z,45.22
2018-04-29T20:12:10.032Z,45.78
2018-04-29T20:15:12.711Z,46.12
2018-04-29T20:18:15.302Z,46.35
2018-04-29T20:21:17.921Z,46.02
2018-04-29T20:24:20.461Z,46.43
2018-04-29T20:27:23.024Z,46.71
2018-04-29T20:30:25.675Z,47.27
2018-04-29T20:33:28.272Z,47.04
2018-04-29T20:36:30.867Z,46.75
2018-04-29T20:39:33.539Z,47.57
2018-04-29T20:42:36.116Z,47.37
2018-04-29T20:45:38.973Z,47.78
2018-04-29T20:48:41.576Z,47.04
2018-04-29T20:51:44.135Z,47.59
2018-04-29T20:54:46.656Z,47.41
2018-04-29T20:57:49.198Z,47.44
2018-04-29T21:00:51.718Z,47.92
2018-04-29T21:03:54.308Z,48.50
2018-04-29T21:06:56.863Z,48.34
2018-04-29T21:09:59.444Z,48.83
2018-04-29T21:13:02.113Z,48.33
2018-04-29T21:16:04.649Z,48.14
2018-04-29T21:19:07.171Z,48.90
2018-04-29T21:22:09.722Z,48.84
2018-04-29T21:25:12.229Z,48.72
2018-04-29T21:28:14.766Z,49.49
2018-04-29T21:31:18.426Z,49.31
2018-04-29T21:34:21.109Z,49.83
2018-04-29T21:37:23.617Z,49.54
2018-04-29T21:40:26.169Z,49.38
2018-04-29T21:43:28.695Z,49.57
2018-04-29T21:46:31.248Z,50.04
2018-04-29T21:49:33.794Z,49.60
2018-04-29T21:52:36.418Z,49.47
2018-04-29T21:55:38.939Z,50.06
2018-04-29T21:58:41.528Z,49.96
2018-04-29T22:01:44.031Z,49.70
2018-04-29T22:04:46.583Z,49.58
2018-04-29T22:07:49.147Z,50.11
2018-04-29T22:10:51.683Z,49.91
2018-04-29T22:13:54.244Z,50.14
2018-04-29T22:16:56.768Z,50.46
2018-04-29T22:19:59.265Z,50.65
2018-04-29T22:23:01.806Z,50.22
2018-04-29T22:26:04.329Z,50.04
2018-04-29T22:29:06.872Z,50.33
2018-04-29T22:32:09.390Z,50.19
2018-04-29T22:35:11.891Z,50.57
2018-04-29T22:38:14.425Z,51.06
2018-04-29T22:41:16.945Z,51.04
2018-04-29T22:44:19.438Z,50.61
2018-04-29T22:47:21.977Z,50.95
2018-04-29T22:50:24.463Z,51.56
2018-04-29T22:53:27.003Z,51.60
2018-04-29T22:56:29.529Z,52.16
2018-04-29T22:59:31.997Z,51.68
2018-04-29T23:02:34.540Z,51.85
2018-04-29T23:05:37.175Z,51.51
2018-04-29T23:08:39.652Z,51.93
2018-04-29T23:11:42.207Z,52.47
2018-04-29T23:14:45.822Z,52.19
2018-04-29T23:17:48.345Z,52.22
2018-04-29T23:20:52.069Z,52.69
2018-04-29T23:23:54.600Z,52.39
2018-04-29T23:26:57.100Z,53.01
2018-04-29T23:29:59.633Z,53.37
2018-04-29T23:33:02.115Z,53.58
2018-04-29T23:36:04.692Z,53.59
2018-04-29T23:39:07.195Z,54.11
2018-04-29T23:42:09.711Z,53.68
2018-04-29T23:45:12.234Z,54.52
2018-04-29T23:48:14.768Z,53.81
2018-04-29T23:51:17.262Z,54.35
2018-04-29T23:54:19.784Z,54.36
2018-04-29T23:57:22.289Z,54.90
